Observation data for Levelland on 03/24/2019      Previous  Date       Current Mesonet Observations  Soil Data  Daily Summary Page  Observations in Plain Language
KLD1 240500Z 19007KT 10/M00 A3002 RMK A01 T00981003  RH  050%=      5-min Rain = 0
KLD1 240505Z 20007KT 10/M00 A3002 RMK A01 T00961003  RH  050%=      5-min Rain = 0
KLD1 240510Z 19007KT 09/M01 A3002 RMK A01 T00931005  RH  051%=      5-min Rain = 0
KLD1 240515Z 19007KT 09/M01 A3002 RMK A01 T00911005  RH  051%=      5-min Rain = 0
KLD1 240520Z 20007KT 09/M01 A3002 RMK A01 T00921007  RH  050%=      5-min Rain = 0
KLD1 240525Z 20006KT 09/M01 A3002 RMK A01 T00891007  RH  051%=      5-min Rain = 0
KLD1 240530Z 20007KT 09/M00 A3002 RMK A01 T00851004  RH  054%=      5-min Rain = 0
KLD1 240535Z 20007KT 08/M00 A3002 RMK A01 T00821003  RH  056%=      5-min Rain = 0
KLD1 240540Z 20007KT 08/M00 A3002 RMK A01 T00821002  RH  056%=      5-min Rain = 0
KLD1 240545Z 21007KT 08/00 A3002 RMK A01 T00800000  RH  058%=      5-min Rain = 0
KLD1 240550Z 21007KT 08/M00 A3001 RMK A01 T00801001  RH  057%=      5-min Rain = 0
KLD1 240555Z 21008KT 08/M01 A3001 RMK A01 T00821006  RH  054%=      5-min Rain = 0
KLD1 240600Z 21008KT 08/M01 A3001 RMK A01 T00841008  RH  053%=      5-min Rain = 0
KLD1 240605Z 22008KT 09/M01 A3001 RMK A01 T00851011  RH  051%=      5-min Rain = 0
KLD1 240610Z 22008KT 09/M01 A3001 RMK A01 T00861013  RH  050%=      5-min Rain = 0
KLD1 240615Z 21008KT 09/M02 A3001 RMK A01 T00871015  RH  049%=      5-min Rain = 0
KLD1 240620Z 21008KT 09/M02 A3001 RMK A01 T00881015  RH  049%=      5-min Rain = 0
KLD1 240625Z 21008KT 09/M02 A3001 RMK A01 T00911018  RH  047%=      5-min Rain = 0
KLD1 240630Z 22008KT 09/M02 A30 RMK A01 T00921018  RH  046%=      5-min Rain = 0
KLD1 240635Z 22007KT 09/M02 A30 RMK A01 T00891018  RH  047%=      5-min Rain = 0
KLD1 240640Z 23007KT 08/M01 A30 RMK A01 T00841014  RH  051%=      5-min Rain = 0
KLD1 240645Z 23007KT 08/M01 A30 RMK A01 T00801011  RH  053%=      5-min Rain = 0
KLD1 240650Z 25007KT 08/M01 A30 RMK A01 T00751009  RH  056%=      5-min Rain = 0
KLD1 240655Z 25008KT 07/M00 A30 RMK A01 T00651003  RH  062%=      5-min Rain = 0
KLD1 240700Z 24008KT 06/00 A30 RMK A01 T00590002  RH  068%=      5-min Rain = 0
KLD1 240705Z 25008KT 06/00 A30 RMK A01 T00590003  RH  068%=      5-min Rain = 0
KLD1 240710Z 24009KT 06/00 A30 RMK A01 T00570002  RH  069%=      5-min Rain = 0
KLD1 240715Z 25007KT 06/00 A3001 RMK A01 T00590001  RH  067%=      5-min Rain = 0
KLD1 240720Z 25007KT 06/M00 A3001 RMK A01 T00571001  RH  067%=      5-min Rain = 0
KLD1 240725Z 25006KT 05/00 A3001 RMK A01 T00510001  RH  071%=      5-min Rain = 0
KLD1 240730Z 24006KT 05/M00 A3001 RMK A01 T00521002  RH  069%=      5-min Rain = 0
KLD1 240735Z 24005KT 06/M00 A3001 RMK A01 T00581004  RH  065%=      5-min Rain = 0
KLD1 240740Z 25003KT 05/M00 A3001 RMK A01 T00521002  RH  069%=      5-min Rain = 0
KLD1 240745Z 25003KT 05/M00 A3001 RMK A01 T00461001  RH  072%=      5-min Rain = 0
KLD1 240750Z 26005KT 05/M00 A3001 RMK A01 T00491001  RH  071%=      5-min Rain = 0
KLD1 240755Z 26005KT 05/M00 A3001 RMK A01 T00511001  RH  070%=      5-min Rain = 0
KLD1 240800Z 27006KT 05/M00 A3001 RMK A01 T00481001  RH  071%=      5-min Rain = 0
KLD1 240805Z 28006KT 04/00 A3001 RMK A01 T004300-0  RH  074%=      5-min Rain = 0
KLD1 240810Z 28005KT 04/M00 A3001 RMK A01 T00401004  RH  074%=      5-min Rain = 0
KLD1 240815Z 29005KT 04/M00 A3001 RMK A01 T00411004  RH  074%=      5-min Rain = 0
KLD1 240820Z 29005KT 04/M00 A3001 RMK A01 T00401003  RH  074%=      5-min Rain = 0
KLD1 240825Z 30006KT 04/M01 A3001 RMK A01 T00401006  RH  073%=      5-min Rain = 0
KLD1 240830Z 30007KT 04/M01 A3001 RMK A01 T00421009  RH  070%=      5-min Rain = 0
KLD1 240835Z 30008KT 04/M01 A3001 RMK A01 T00411010  RH  070%=      5-min Rain = 0
KLD1 240840Z 30007KT 04/M01 A3001 RMK A01 T00391011  RH  071%=      5-min Rain = 0
KLD1 240845Z 30007KT 04/M01 A30 RMK A01 T00391013  RH  070%=      5-min Rain = 0
KLD1 240850Z 30007KT 04/M02 A30 RMK A01 T00401015  RH  068%=      5-min Rain = 0
KLD1 240855Z 30006KT 04/M02 A30 RMK A01 T00401015  RH  068%=      5-min Rain = 0
KLD1 240900Z 29006KT 04/M02 A30 RMK A01 T00401016  RH  067%=      5-min Rain = 0
KLD1 240905Z 28007KT 04/M02 A30 RMK A01 T00411016  RH  067%=      5-min Rain = 0
KLD1 240910Z 28007KT 04/M02 A30 RMK A01 T00441017  RH  065%=      5-min Rain = 0
KLD1 240915Z 28006KT 05/M02 A30 RMK A01 T00481019  RH  062%=      5-min Rain = 0
KLD1 240920Z 29006KT 05/M02 A30 RMK A01 T00471019  RH  063%=      5-min Rain = 0
KLD1 240925Z 29006KT 05/M02 A30 RMK A01 T00471018  RH  063%=      5-min Rain = 0
KLD1 240930Z 29006KT 04/M02 A30 RMK A01 T00441016  RH  065%=      5-min Rain = 0
KLD1 240935Z 29006KT 04/M02 A30 RMK A01 T00431016  RH  066%=      5-min Rain = 0
KLD1 240940Z 29006KT 04/M02 A30 RMK A01 T00421015  RH  067%=      5-min Rain = 0
KLD1 240945Z 30006KT 04/M01 A3001 RMK A01 T00411014  RH  068%=      5-min Rain = 0
KLD1 240950Z 30007KT 04/M02 A3001 RMK A01 T00391017  RH  067%=      5-min Rain = 0
KLD1 240955Z 30008KT 04/M02 A3001 RMK A01 T00401018  RH  067%=      5-min Rain = 0
KLD1 241000Z 30007KT 04/M02 A3001 RMK A01 T00391018  RH  067%=      5-min Rain = 0
KLD1 241005Z 31006KT 04/M02 A3001 RMK A01 T00391018  RH  067%=      5-min Rain = 0
KLD1 241010Z 30005KT 04/M02 A3001 RMK A01 T00401018  RH  066%=      5-min Rain = 0
KLD1 241015Z 28005KT 04/M02 A3001 RMK A01 T00421017  RH  066%=      5-min Rain = 0
KLD1 241020Z 28006KT 05/M02 A3001 RMK A01 T00451017  RH  065%=      5-min Rain = 0
KLD1 241025Z 27006KT 05/M02 A3001 RMK A01 T00471016  RH  064%=      5-min Rain = 0
KLD1 241030Z 28005KT 05/M01 A3001 RMK A01 T00461012  RH  067%=      5-min Rain = 0
KLD1 241035Z 28004KT 04/M01 A3001 RMK A01 T00411011  RH  069%=      5-min Rain = 0
KLD1 241040Z 26001KT 04/M01 A3001 RMK A01 T00391010  RH  071%=      5-min Rain = 0
KLD1 241045Z 29003KT 04/M01 A3001 RMK A01 T00441014  RH  066%=      5-min Rain = 0
KLD1 241050Z 29005KT 05/M01 A3002 RMK A01 T00451013  RH  067%=      5-min Rain = 0
KLD1 241055Z 30006KT 04/M01 A3002 RMK A01 T00391011  RH  071%=      5-min Rain = 0
KLD1 241100Z 31006KT 04/M01 A3002 RMK A01 T00361010  RH  073%=      5-min Rain = 0
KLD1 241105Z 30006KT 03/M01 A3002 RMK A01 T00341008  RH  075%=      5-min Rain = 0
KLD1 241110Z 30006KT 04/M01 A3002 RMK A01 T00351010  RH  073%=      5-min Rain = 0
KLD1 241115Z 30006KT 04/M01 A3002 RMK A01 T00361013  RH  071%=      5-min Rain = 0
KLD1 241120Z 30006KT 04/M01 A3002 RMK A01 T00361013  RH  071%=      5-min Rain = 0
KLD1 241125Z 30007KT 04/M01 A3003 RMK A01 T00351014  RH  071%=      5-min Rain = 0
KLD1 241130Z 30008KT 04/M02 A3003 RMK A01 T00361015  RH  070%=      5-min Rain = 0
KLD1 241135Z 30008KT 04/M02 A3003 RMK A01 T00351016  RH  070%=      5-min Rain = 0
KLD1 241140Z 30007KT 03/M02 A3004 RMK A01 T00331017  RH  070%=      5-min Rain = 0
KLD1 241145Z 31007KT 03/M02 A3003 RMK A01 T00311019  RH  070%=      5-min Rain = 0
KLD1 241150Z 31007KT 03/M02 A3004 RMK A01 T00291020  RH  071%=      5-min Rain = 0
KLD1 241155Z 30006KT 03/M02 A3004 RMK A01 T00291020  RH  071%=      5-min Rain = 0
KLD1 241200Z 31007KT 03/M02 A3004 RMK A01 T00271020  RH  072%=      5-min Rain = 0
KLD1 241205Z 32007KT 03/M02 A3004 RMK A01 T00261022  RH  071%=      5-min Rain = 0
KLD1 241210Z 32006KT 03/M02 A3004 RMK A01 T00251022  RH  071%=      5-min Rain = 0
KLD1 241215Z 33006KT 03/M02 A3004 RMK A01 T00261022  RH  071%=      5-min Rain = 0
KLD1 241220Z 33006KT 03/M02 A3005 RMK A01 T00261021  RH  071%=      5-min Rain = 0
KLD1 241225Z 33007KT 03/M02 A3005 RMK A01 T00251019  RH  073%=      5-min Rain = 0
KLD1 241230Z 33006KT 03/M02 A3005 RMK A01 T00271017  RH  074%=      5-min Rain = 0
KLD1 241235Z 33006KT 03/M02 A3005 RMK A01 T00251018  RH  074%=      5-min Rain = 0
KLD1 241240Z 34007KT 03/M01 A3005 RMK A01 T00291010  RH  077%=      5-min Rain = 0
KLD1 241245Z 34007KT 03/M00 A3005 RMK A01 T00341003  RH  077%=      5-min Rain = 0
KLD1 241250Z 34007KT 04/M00 A3005 RMK A01 T00361001  RH  078%=      5-min Rain = 0
KLD1 241255Z 34006KT 04/00 A3006 RMK A01 T00370000  RH  078%=      5-min Rain = 0
KLD1 241300Z 34005KT 04/00 A3006 RMK A01 T00370001  RH  078%=      5-min Rain = 0
KLD1 241305Z 33007KT 04/00 A3006 RMK A01 T00360001  RH  079%=      5-min Rain = 0
KLD1 241310Z 33007KT 04/00 A3006 RMK A01 T00350003  RH  080%=      5-min Rain = 0
KLD1 241315Z 33006KT 04/00 A3006 RMK A01 T00370004  RH  080%=      5-min Rain = 0
KLD1 241320Z 33007KT 04/01 A3007 RMK A01 T00390005  RH  080%=      5-min Rain = 0
KLD1 241325Z 32004KT 04/01 A3007 RMK A01 T00410007  RH  080%=      5-min Rain = 0
KLD1 241330Z 32004KT 04/01 A3007 RMK A01 T00430009  RH  080%=      5-min Rain = 0
KLD1 241335Z 33002KT 05/01 A3007 RMK A01 T00480012  RH  079%=      5-min Rain = 0
KLD1 241340Z 33002KT 05/01 A3008 RMK A01 T00530012  RH  076%=      5-min Rain = 0
KLD1 241345Z 34004KT 06/01 A3008 RMK A01 T00560014  RH  075%=      5-min Rain = 0
KLD1 241350Z 34005KT 06/02 A3008 RMK A01 T00600018  RH  075%=      5-min Rain = 0
KLD1 241355Z 35006KT 06/02 A3008 RMK A01 T00640020  RH  075%=      5-min Rain = 0
KLD1 241400Z 01006KT 07/02 A3008 RMK A01 T00660020  RH  073%=      5-min Rain = 0
KLD1 241405Z 01007KT 07/02 A3008 RMK A01 T00690022  RH  073%=      5-min Rain = 0
KLD1 241410Z 01008KT 07/02 A3008 RMK A01 T00700022  RH  073%=      5-min Rain = 0
KLD1 241415Z 02008KT 07/03 A3008 RMK A01 T00730025  RH  073%=      5-min Rain = 0
KLD1 241420Z 01008KT 08/03 A3008 RMK A01 T00750026  RH  072%=      5-min Rain = 0
KLD1 241425Z 01009KT 08/03 A3009 RMK A01 T00800029  RH  072%=      5-min Rain = 0
KLD1 241430Z 01009KT 08/03 A3009 RMK A01 T00810028  RH  070%=      5-min Rain = 0
KLD1 241435Z 36009KT 08/03 A3009 RMK A01 T00810028  RH  070%=      5-min Rain = 0
KLD1 241440Z 01008KT 08/03 A301 RMK A01 T00830028  RH  069%=      5-min Rain = 0
KLD1 241445Z 00010KT 08/03 A3009 RMK A01 T00830027  RH  069%=      5-min Rain = 0
KLD1 241450Z 36009KT 08/03 A301 RMK A01 T00830026  RH  069%=      5-min Rain = 0
KLD1 241455Z 36009KT 08/03 A301 RMK A01 T00840027  RH  069%=      5-min Rain = 0
KLD1 241500Z 00009KT 09/03 A301 RMK A01 T00850028  RH  068%=      5-min Rain = 0
KLD1 241505Z 01010KT 09/03 A301 RMK A01 T00850027  RH  068%=      5-min Rain = 0
KLD1 241510Z 01008KT 09/03 A301 RMK A01 T00860028  RH  068%=      5-min Rain = 0
KLD1 241515Z 01009KT 09/03 A301 RMK A01 T00890029  RH  067%=      5-min Rain = 0
KLD1 241520Z 01009KT 09/03 A301 RMK A01 T00900028  RH  066%=      5-min Rain = 0
KLD1 241525Z 01008KT 09/03 A301 RMK A01 T00920029  RH  066%=      5-min Rain = 0
KLD1 241530Z 00007KT 09/03 A3011 RMK A01 T00940028  RH  064%=      5-min Rain = 0
KLD1 241535Z 01007KT 10/03 A3011 RMK A01 T00960029  RH  064%=      5-min Rain = 0
KLD1 241540Z 01006KT 10/03 A3011 RMK A01 T00970029  RH  064%=      5-min Rain = 0
KLD1 241545Z 00007KT 10/03 A3011 RMK A01 T00990029  RH  063%=      5-min Rain = 0
KLD1 241550Z 36006KT 10/03 A3011 RMK A01 T01000029  RH  063%=      5-min Rain = 0
KLD1 241555Z 01006KT 11/03 A3011 RMK A01 T01070032  RH  061%=      5-min Rain = 0
KLD1 241600Z 01006KT 11/03 A3011 RMK A01 T01110034  RH  060%=      5-min Rain = 0
KLD1 241605Z 01006KT 11/03 A3011 RMK A01 T01090030  RH  059%=      5-min Rain = 0
KLD1 241610Z 00007KT 11/03 A3011 RMK A01 T01120030  RH  058%=      5-min Rain = 0
KLD1 241615Z 01006KT 11/03 A3011 RMK A01 T01100030  RH  059%=      5-min Rain = 0
KLD1 241620Z 00005KT 11/03 A3011 RMK A01 T01140031  RH  058%=      5-min Rain = 0
KLD1 241625Z 01006KT 12/03 A3011 RMK A01 T01180034  RH  057%=      5-min Rain = 0
KLD1 241630Z 02006KT 12/03 A3011 RMK A01 T01200031  RH  055%=      5-min Rain = 0
KLD1 241635Z 02007KT 12/03 A3011 RMK A01 T01210033  RH  056%=      5-min Rain = 0
KLD1 241640Z 03005KT 13/03 A3011 RMK A01 T01250034  RH  055%=      5-min Rain = 0
KLD1 241645Z 02005KT 13/03 A3011 RMK A01 T01290033  RH  053%=      5-min Rain = 0
KLD1 241650Z 05003KT 13/03 A3011 RMK A01 T01310032  RH  052%=      5-min Rain = 0
KLD1 241655Z 04003KT 13/03 A3011 RMK A01 T01320034  RH  052%=      5-min Rain = 0
KLD1 241700Z 05002KT 14/03 A3011 RMK A01 T01360034  RH  051%=      5-min Rain = 0
KLD1 241705Z 00003KT 14/04 A3011 RMK A01 T01400036  RH  050%=      5-min Rain = 0
KLD1 241710Z 05003KT 14/03 A3011 RMK A01 T01410032  RH  049%=      5-min Rain = 0
KLD1 241715Z 04002KT 15/03 A3011 RMK A01 T01450034  RH  048%=      5-min Rain = 0
KLD1 241720Z 02002KT 15/03 A3011 RMK A01 T01480034  RH  047%=      5-min Rain = 0
KLD1 241725Z 03002KT 15/03 A3011 RMK A01 T01490033  RH  047%=      5-min Rain = 0
KLD1 241730Z 34001KT 15/03 A3011 RMK A01 T01510030  RH  045%=      5-min Rain = 0
KLD1 241735Z 01001KT 16/03 A3011 RMK A01 T01550032  RH  044%=      5-min Rain = 0
KLD1 241740Z 05002KT 16/04 A3011 RMK A01 T01600038  RH  045%=      5-min Rain = 0
KLD1 241745Z 06003KT 16/04 A3011 RMK A01 T01610035  RH  044%=      5-min Rain = 0
KLD1 241750Z 02001KT 16/03 A3011 RMK A01 T01600033  RH  043%=      5-min Rain = 0
KLD1 241755Z 07002KT 17/04 A3011 RMK A01 T01660038  RH  043%=      5-min Rain = 0
KLD1 241800Z 32002KT 17/03 A301 RMK A01 T01710028  RH  039%=      5-min Rain = 0
KLD1 241805Z 01002KT 17/02 A301 RMK A01 T01700018  RH  037%=      5-min Rain = 0
KLD1 241810Z 05002KT 17/02 A301 RMK A01 T01680023  RH  038%=      5-min Rain = 0
KLD1 241815Z 04001KT 17/03 A301 RMK A01 T01720028  RH  039%=      5-min Rain = 0
KLD1 241820Z 03001KT 17/03 A301 RMK A01 T01740029  RH  039%=      5-min Rain = 0
KLD1 241825Z 36001KT 18/03 A301 RMK A01 T01770030  RH  038%=      5-min Rain = 0
KLD1 241830Z 01002KT 18/03 A3009 RMK A01 T01780028  RH  037%=      5-min Rain = 0
KLD1 241835Z 08001KT 18/03 A3009 RMK A01 T01790030  RH  038%=      5-min Rain = 0
KLD1 241840Z 05001KT 18/01 A3009 RMK A01 T01800014  RH  033%=      5-min Rain = 0
KLD1 241845Z 35001KT 18/01 A3009 RMK A01 T01840008  RH  031%=      5-min Rain = 0
KLD1 241850Z 27002KT 19/01 A3009 RMK A01 T01880011  RH  031%=      5-min Rain = 0
KLD1 241855Z 34003KT 19/01 A3009 RMK A01 T01850010  RH  031%=      5-min Rain = 0
KLD1 241900Z 35003KT 19/01 A3009 RMK A01 T01880010  RH  031%=      5-min Rain = 0
KLD1 241905Z 34002KT 19/01 A3009 RMK A01 T01890007  RH  030%=      5-min Rain = 0
KLD1 241910Z 34001KT 19/01 A3009 RMK A01 T01890005  RH  029%=      5-min Rain = 0
KLD1 241915Z 01001KT 19/01 A3009 RMK A01 T01890009  RH  030%=      5-min Rain = 0
KLD1 241920Z 15002KT 19/02 A3009 RMK A01 T01910024  RH  033%=      5-min Rain = 0
KLD1 241925Z 15004KT 19/03 A3008 RMK A01 T01890032  RH  036%=      5-min Rain = 0
KLD1 241930Z 18004KT 19/04 A3008 RMK A01 T01920035  RH  036%=      5-min Rain = 0
KLD1 241935Z 17004KT 19/03 A3008 RMK A01 T01910027  RH  034%=      5-min Rain = 0
KLD1 241940Z 19004KT 19/03 A3008 RMK A01 T01910027  RH  034%=      5-min Rain = 0
KLD1 241945Z 19001KT 19/02 A3008 RMK A01 T01910022  RH  033%=      5-min Rain = 0
KLD1 241950Z 36001KT 19/03 A3008 RMK A01 T01920030  RH  035%=      5-min Rain = 0
KLD1 241955Z 19003KT 20/03 A3008 RMK A01 T02020031  RH  033%=      5-min Rain = 0
KLD1 242000Z 20004KT 20/03 A3007 RMK A01 T01970030  RH  034%=      5-min Rain = 0
KLD1 242005Z 20004KT 20/03 A3007 RMK A01 T02000033  RH  034%=      5-min Rain = 0
KLD1 242010Z 16005KT 20/03 A3007 RMK A01 T02000029  RH  033%=      5-min Rain = 0
KLD1 242015Z 15004KT 20/02 A3007 RMK A01 T01970023  RH  032%=      5-min Rain = 0
KLD1 242020Z 12002KT 20/03 A3006 RMK A01 T02000027  RH  032%=      5-min Rain = 0
KLD1 242025Z 20003KT 20/03 A3006 RMK A01 T02040025  RH  031%=      5-min Rain = 0
KLD1 242030Z 17002KT 21/03 A3006 RMK A01 T02060026  RH  031%=      5-min Rain = 0
KLD1 242035Z 05002KT 20/02 A3006 RMK A01 T02040016  RH  029%=      5-min Rain = 0
KLD1 242040Z 27001KT 20/02 A3005 RMK A01 T02020017  RH  030%=      5-min Rain = 0
KLD1 242045Z 21002KT 21/03 A3006 RMK A01 T02100027  RH  030%=      5-min Rain = 0
KLD1 242050Z 22002KT 21/02 A3006 RMK A01 T02090020  RH  029%=      5-min Rain = 0
KLD1 242055Z 19002KT 21/02 A3006 RMK A01 T02120024  RH  029%=      5-min Rain = 0
KLD1 242100Z 18005KT 21/02 A3006 RMK A01 T02140022  RH  029%=      5-min Rain = 0
KLD1 242105Z 19004KT 21/03 A3005 RMK A01 T02140025  RH  029%=      5-min Rain = 0
KLD1 242110Z 19005KT 21/02 A3005 RMK A01 T02110024  RH  030%=      5-min Rain = 0
KLD1 242115Z 20006KT 21/03 A3005 RMK A01 T02140025  RH  029%=      5-min Rain = 0
KLD1 242120Z 20004KT 22/02 A3005 RMK A01 T02150020  RH  028%=      5-min Rain = 0
KLD1 242125Z 18003KT 22/02 A3005 RMK A01 T02150016  RH  027%=      5-min Rain = 0
KLD1 242130Z 20002KT 22/01 A3005 RMK A01 T02170012  RH  026%=      5-min Rain = 0
KLD1 242135Z 16004KT 22/02 A3005 RMK A01 T02180019  RH  027%=      5-min Rain = 0
KLD1 242140Z 15005KT 21/02 A3005 RMK A01 T02140017  RH  028%=      5-min Rain = 0
KLD1 242145Z 17005KT 21/02 A3005 RMK A01 T02130017  RH  028%=      5-min Rain = 0
KLD1 242150Z 16005KT 22/02 A3005 RMK A01 T02160023  RH  028%=      5-min Rain = 0
KLD1 242155Z 12005KT 22/03 A3005 RMK A01 T02180025  RH  029%=      5-min Rain = 0
KLD1 242200Z 15004KT 22/02 A3005 RMK A01 T02160018  RH  027%=      5-min Rain = 0
KLD1 242205Z 11005KT 22/02 A3005 RMK A01 T02150019  RH  028%=      5-min Rain = 0
KLD1 242210Z 10004KT 22/01 A3005 RMK A01 T02150014  RH  027%=      5-min Rain = 0
KLD1 242215Z 10005KT 22/02 A3005 RMK A01 T02160016  RH  027%=      5-min Rain = 0
KLD1 242220Z 12004KT 22/01 A3005 RMK A01 T02160010  RH  026%=      5-min Rain = 0
KLD1 242225Z 15004KT 22/01 A3005 RMK A01 T02160007  RH  025%=      5-min Rain = 0
KLD1 242230Z 17005KT 22/01 A3004 RMK A01 T02200014  RH  026%=      5-min Rain = 0
KLD1 242235Z 15005KT 22/01 A3004 RMK A01 T02200010  RH  025%=      5-min Rain = 0
KLD1 242240Z 13004KT 22/01 A3004 RMK A01 T02210011  RH  025%=      5-min Rain = 0
KLD1 242245Z 12002KT 22/01 A3004 RMK A01 T02180005  RH  025%=      5-min Rain = 0
KLD1 242250Z 16002KT 22/01 A3004 RMK A01 T02210005  RH  024%=      5-min Rain = 0
KLD1 242255Z 15003KT 22/01 A3004 RMK A01 T02240010  RH  025%=      5-min Rain = 0
KLD1 242300Z 14004KT 22/01 A3004 RMK A01 T02230007  RH  024%=      5-min Rain = 0
KLD1 242305Z 13003KT 22/01 A3004 RMK A01 T02210009  RH  025%=      5-min Rain = 0
KLD1 242310Z 12004KT 22/01 A3004 RMK A01 T02200011  RH  025%=      5-min Rain = 0
KLD1 242315Z 11005KT 22/02 A3004 RMK A01 T02170018  RH  027%=      5-min Rain = 0
KLD1 242320Z 12005KT 22/02 A3004 RMK A01 T02170018  RH  027%=      5-min Rain = 0
KLD1 242325Z 12006KT 22/02 A3003 RMK A01 T02160015  RH  027%=      5-min Rain = 0
KLD1 242330Z 11005KT 22/01 A3003 RMK A01 T02160012  RH  026%=      5-min Rain = 0
KLD1 242335Z 11005KT 22/01 A3003 RMK A01 T02160014  RH  027%=      5-min Rain = 0
KLD1 242340Z 09005KT 22/01 A3003 RMK A01 T02150014  RH  027%=      5-min Rain = 0
KLD1 242345Z 10005KT 21/02 A3004 RMK A01 T02140015  RH  027%=      5-min Rain = 0
KLD1 242350Z 10005KT 21/02 A3003 RMK A01 T02140016  RH  027%=      5-min Rain = 0
KLD1 242355Z 08004KT 21/02 A3003 RMK A01 T02140018  RH  028%=      5-min Rain = 0
KLD1 250000Z 09005KT 21/02 A3003 RMK A01 T02130017  RH  028%=      5-min Rain = 0
KLD1 250005Z 10006KT 21/02 A3003 RMK A01 T02110021  RH  029%=      5-min Rain = 0
KLD1 250010Z 11005KT 21/02 A3003 RMK A01 T02100021  RH  029%=      5-min Rain = 0
KLD1 250015Z 11005KT 21/03 A3003 RMK A01 T02090030  RH  031%=      5-min Rain = 0
KLD1 250020Z 12005KT 21/02 A3003 RMK A01 T02070024  RH  030%=      5-min Rain = 0
KLD1 250025Z 13005KT 21/04 A3004 RMK A01 T02050036  RH  034%=      5-min Rain = 0
KLD1 250030Z 13005KT 20/05 A3004 RMK A01 T02010048  RH  037%=      5-min Rain = 0
KLD1 250035Z 12004KT 20/05 A3004 RMK A01 T01980052  RH  039%=      5-min Rain = 0
KLD1 250040Z 12004KT 20/06 A3004 RMK A01 T01950057  RH  041%=      5-min Rain = 0
KLD1 250045Z 12006KT 19/05 A3004 RMK A01 T01920054  RH  041%=      5-min Rain = 0
KLD1 250050Z 13006KT 19/06 A3004 RMK A01 T01870057  RH  044%=      5-min Rain = 0
KLD1 250055Z 13006KT 18/06 A3004 RMK A01 T01830062  RH  046%=      5-min Rain = 0
KLD1 250100Z 12006KT 18/06 A3004 RMK A01 T01810059  RH  046%=      5-min Rain = 0
KLD1 250105Z 13006KT 18/06 A3004 RMK A01 T01770060  RH  047%=      5-min Rain = 0
KLD1 250110Z 12005KT 17/06 A3004 RMK A01 T01730055  RH  047%=      5-min Rain = 0
KLD1 250115Z 11005KT 17/05 A3004 RMK A01 T01720049  RH  045%=      5-min Rain = 0
KLD1 250120Z 12004KT 16/06 A3005 RMK A01 T01630057  RH  051%=      5-min Rain = 0
KLD1 250125Z 13005KT 16/05 A3005 RMK A01 T01620052  RH  049%=      5-min Rain = 0
KLD1 250130Z 12006KT 16/05 A3005 RMK A01 T01630049  RH  048%=      5-min Rain = 0
KLD1 250135Z 12006KT 16/05 A3005 RMK A01 T01600053  RH  050%=      5-min Rain = 0
KLD1 250140Z 12005KT 15/05 A3005 RMK A01 T01530051  RH  052%=      5-min Rain = 0
KLD1 250145Z 13005KT 16/05 A3005 RMK A01 T01550045  RH  049%=      5-min Rain = 0
KLD1 250150Z 13004KT 15/05 A3005 RMK A01 T01520049  RH  051%=      5-min Rain = 0
KLD1 250155Z 13005KT 15/05 A3005 RMK A01 T01510050  RH  052%=      5-min Rain = 0
KLD1 250200Z 13005KT 15/05 A3005 RMK A01 T01500054  RH  054%=      5-min Rain = 0
KLD1 250205Z 14006KT 14/06 A3006 RMK A01 T01420057  RH  058%=      5-min Rain = 0
KLD1 250210Z 14007KT 14/06 A3006 RMK A01 T01410062  RH  060%=      5-min Rain = 0
KLD1 250215Z 15006KT 14/06 A3006 RMK A01 T01400063  RH  061%=      5-min Rain = 0
KLD1 250220Z 15006KT 14/06 A3006 RMK A01 T01420056  RH  057%=      5-min Rain = 0
KLD1 250225Z 15007KT 14/05 A3006 RMK A01 T01410053  RH  056%=      5-min Rain = 0
KLD1 250230Z 15006KT 14/05 A3006 RMK A01 T01370050  RH  057%=      5-min Rain = 0
KLD1 250235Z 16007KT 14/05 A3007 RMK A01 T01360047  RH  056%=      5-min Rain = 0
KLD1 250240Z 16007KT 13/05 A3007 RMK A01 T01320050  RH  059%=      5-min Rain = 0
KLD1 250245Z 16007KT 13/05 A3007 RMK A01 T01290047  RH  059%=      5-min Rain = 0
KLD1 250250Z 16008KT 13/05 A3007 RMK A01 T01270046  RH  059%=      5-min Rain = 0
KLD1 250255Z 16008KT 13/04 A3008 RMK A01 T01270043  RH  058%=      5-min Rain = 0
KLD1 250300Z 16009KT 13/04 A3008 RMK A01 T01290040  RH  056%=      5-min Rain = 0
KLD1 250305Z 16009KT 13/04 A3008 RMK A01 T01300038  RH  055%=      5-min Rain = 0
KLD1 250310Z 17009KT 13/03 A3008 RMK A01 T01310032  RH  052%=      5-min Rain = 0
KLD1 250315Z 17008KT 13/03 A3008 RMK A01 T01320031  RH  051%=      5-min Rain = 0
KLD1 250320Z 17007KT 13/03 A3008 RMK A01 T01310032  RH  052%=      5-min Rain = 0
KLD1 250325Z 18007KT 13/03 A3009 RMK A01 T01310030  RH  051%=      5-min Rain = 0
KLD1 250330Z 18007KT 13/03 A3009 RMK A01 T01280032  RH  053%=      5-min Rain = 0
KLD1 250335Z 18007KT 13/03 A3009 RMK A01 T01270031  RH  053%=      5-min Rain = 0
KLD1 250340Z 18007KT 13/03 A3009 RMK A01 T01270031  RH  053%=      5-min Rain = 0
KLD1 250345Z 21005KT 12/03 A301 RMK A01 T01240030  RH  054%=      5-min Rain = 0
KLD1 250350Z 24005KT 11/03 A301 RMK A01 T01120030  RH  058%=      5-min Rain = 0
KLD1 250355Z 28007KT 11/03 A3011 RMK A01 T01050029  RH  060%=      5-min Rain = 0
KLD1 250400Z 25007KT 10/03 A3011 RMK A01 T01020030  RH  062%=      5-min Rain = 0
KLD1 250405Z 27009KT 11/03 A3012 RMK A01 T01140026  RH  055%=      5-min Rain = 0
KLD1 250410Z 26008KT 12/03 A3012 RMK A01 T01160025  RH  055%=      5-min Rain = 0
KLD1 250415Z 26005KT 11/02 A3012 RMK A01 T01120024  RH  055%=      5-min Rain = 0
KLD1 250420Z 26004KT 12/02 A3012 RMK A01 T01150020  RH  053%=      5-min Rain = 0
KLD1 250425Z 25003KT 12/02 A3012 RMK A01 T01200017  RH  050%=      5-min Rain = 0
KLD1 250430Z 24004KT 10/02 A3012 RMK A01 T01030020  RH  057%=      5-min Rain = 0
KLD1 250435Z 25004KT 10/02 A3012 RMK A01 T01030021  RH  058%=      5-min Rain = 0
KLD1 250440Z 27002KT 10/02 A3012 RMK A01 T01030021  RH  057%=      5-min Rain = 0
KLD1 250445Z 26002KT 10/02 A3012 RMK A01 T01040021  RH  057%=      5-min Rain = 0
KLD1 250450Z 25002KT 11/02 A3013 RMK A01 T01070020  RH  056%=      5-min Rain = 0
KLD1 250455Z 26003KT 11/02 A3013 RMK A01 T01080020  RH  055%=      5-min Rain = 0

Page generated in 0.0095 seconds.